createdAt,value
2023-04-17T00:00:40.878Z,10.72
2023-04-17T00:03:24.145Z,10.70
2023-04-17T00:06:07.158Z,10.69
2023-04-17T00:08:59.275Z,10.69
2023-04-17T00:11:51.302Z,10.68
2023-04-17T00:14:43.296Z,10.65
2023-04-17T00:17:35.458Z,10.63
2023-04-17T00:20:27.498Z,10.61
2023-04-17T00:23:19.483Z,10.59
2023-04-17T00:26:11.626Z,10.56
2023-04-17T00:28:47.404Z,10.56
2023-04-17T00:31:19.413Z,10.53
2023-04-17T00:34:11.463Z,10.52
2023-04-17T00:37:03.415Z,10.52
2023-04-17T00:39:55.425Z,10.52
2023-04-17T00:42:52.944Z,10.49
2023-04-17T00:45:47.275Z,10.47
2023-04-17T00:48:40.946Z,10.45
2023-04-17T00:51:33.667Z,10.42
2023-04-17T00:54:27.019Z,10.41
2023-04-17T00:57:10.523Z,10.39
2023-04-17T01:00:02.614Z,10.38
2023-04-17T01:02:56.679Z,10.36
2023-04-17T01:05:39.300Z,10.35
2023-04-17T01:08:11.699Z,10.34
2023-04-17T01:11:03.692Z,10.34
2023-04-17T01:13:55.743Z,10.32
2023-04-17T01:16:48.738Z,10.29
2023-04-17T01:19:40.786Z,10.27
2023-04-17T01:22:32.795Z,10.25
2023-04-17T01:25:25.060Z,10.25
2023-04-17T01:28:17.110Z,10.22
2023-04-17T01:31:09.166Z,10.20
2023-04-17T01:34:02.396Z,10.19
2023-04-17T01:36:54.423Z,10.18
2023-04-17T01:39:46.373Z,10.15
2023-04-17T01:42:38.372Z,10.12
2023-04-17T01:45:30.547Z,10.11
2023-04-17T01:48:22.593Z,10.09
2023-04-17T01:51:14.607Z,10.08
2023-04-17T01:54:06.911Z,10.04
2023-04-17T01:56:58.929Z,10.00
2023-04-17T01:59:50.948Z,9.97
2023-04-17T02:02:43.500Z,9.94
2023-04-17T02:05:35.741Z,9.90
2023-04-17T02:08:29.727Z,9.86
2023-04-17T02:11:21.821Z,9.84
2023-04-17T02:14:13.849Z,9.82
2023-04-17T02:17:05.898Z,9.80
2023-04-17T02:19:42.980Z,9.80
2023-04-17T02:22:35.051Z,9.81
2023-04-17T02:25:27.068Z,9.82
2023-04-17T02:28:19.053Z,9.84
2023-04-17T02:30:56.389Z,9.85
2023-04-17T02:33:48.461Z,9.84
2023-04-17T02:36:40.464Z,9.83
2023-04-17T02:39:15.173Z,9.85
2023-04-17T02:42:07.412Z,9.86
2023-04-17T02:44:59.442Z,9.88
2023-04-17T02:47:51.821Z,9.91
2023-04-17T02:50:43.623Z,9.92
2023-04-17T02:53:35.574Z,9.93
2023-04-17T02:56:27.630Z,9.92
2023-04-17T02:59:19.626Z,9.92
2023-04-17T03:02:14.725Z,9.90
2023-04-17T03:05:07.459Z,9.88
2023-04-17T03:07:59.880Z,9.85
2023-04-17T03:10:51.912Z,9.82
2023-04-17T03:13:44.495Z,9.78
2023-04-17T03:16:36.659Z,9.76
2023-04-17T03:19:19.772Z,9.74
2023-04-17T03:22:13.254Z,9.70
2023-04-17T03:25:05.890Z,9.66
2023-04-17T03:27:57.908Z,9.62
2023-04-17T03:30:50.338Z,9.60
2023-04-17T03:33:42.369Z,9.58
2023-04-17T03:36:34.358Z,9.57
2023-04-17T03:39:26.452Z,9.57
2023-04-17T03:42:18.741Z,9.55
2023-04-17T03:44:50.678Z,9.55
2023-04-17T03:47:42.684Z,9.56
2023-04-17T03:50:23.372Z,9.59
2023-04-17T03:53:15.406Z,9.61
2023-04-17T03:56:07.880Z,9.63
2023-04-17T03:58:44.912Z,9.67
2023-04-17T04:01:38.631Z,9.70
2023-04-17T04:04:30.854Z,9.75
2023-04-17T04:07:23.060Z,9.79
2023-04-17T04:10:15.170Z,9.80
2023-04-17T04:13:07.219Z,9.82
2023-04-17T04:15:59.234Z,9.85
2023-04-17T04:18:51.212Z,9.88
2023-04-17T04:21:28.580Z,9.90
2023-04-17T04:24:20.550Z,9.93
2023-04-17T04:27:13.075Z,9.98
2023-04-17T04:29:58.678Z,10.02
2023-04-17T04:32:51.554Z,10.06
2023-04-17T04:35:47.571Z,10.11
2023-04-17T04:38:39.871Z,10.16
2023-04-17T04:41:20.833Z,10.20
2023-04-17T04:44:12.785Z,10.23
2023-04-17T04:46:47.762Z,10.29
2023-04-17T04:49:39.727Z,10.34
2023-04-17T04:52:31.821Z,10.39
2023-04-17T04:55:24.391Z,10.44
2023-04-17T04:58:16.542Z,10.48
2023-04-17T05:00:54.044Z,10.54
2023-04-17T05:03:29.144Z,10.59
2023-04-17T05:06:11.193Z,10.63
2023-04-17T05:08:54.562Z,10.69
2023-04-17T05:11:46.553Z,10.76
2023-04-17T05:14:21.103Z,10.83
2023-04-17T05:17:13.118Z,10.90
2023-04-17T05:19:56.329Z,10.97
2023-04-17T05:22:48.393Z,11.04
2023-04-17T05:25:40.572Z,11.14
2023-04-17T05:28:32.587Z,11.24
2023-04-17T05:31:24.615Z,11.34
2023-04-17T05:34:16.617Z,11.44
2023-04-17T05:36:51.400Z,11.58
2023-04-17T05:39:43.469Z,11.72
2023-04-17T05:42:18.195Z,11.81
2023-04-17T05:45:13.232Z,11.87
2023-04-17T05:48:05.482Z,12.00
2023-04-17T05:50:57.675Z,12.19
2023-04-17T05:53:49.648Z,12.34
2023-04-17T05:56:41.736Z,12.47
2023-04-17T05:59:16.696Z,12.54
2023-04-17T06:02:09.446Z,12.61
2023-04-17T06:04:44.494Z,12.65
2023-04-17T06:07:38.336Z,12.65
2023-04-17T06:10:30.580Z,12.68
2023-04-17T06:13:23.063Z,12.73
2023-04-17T06:16:15.343Z,13.06
2023-04-17T06:19:07.323Z,14.23
2023-04-17T06:21:59.312Z,15.45
2023-04-17T06:24:51.379Z,16.75
2023-04-17T06:27:43.311Z,17.62
2023-04-17T06:30:35.603Z,18.03
2023-04-17T06:33:27.663Z,18.09
2023-04-17T06:36:19.701Z,17.94
2023-04-17T06:39:11.853Z,17.80
2023-04-17T06:42:04.145Z,17.67
2023-04-17T06:44:56.297Z,17.59
2023-04-17T06:47:49.352Z,17.55
2023-04-17T06:50:21.579Z,17.59
2023-04-17T06:53:13.731Z,17.68
2023-04-17T06:55:56.253Z,17.69
2023-04-17T06:58:48.310Z,17.70
2023-04-17T07:01:40.471Z,17.64
2023-04-17T07:04:32.733Z,17.49
2023-04-17T07:07:24.835Z,17.36
2023-04-17T07:10:19.287Z,17.37
2023-04-17T07:13:11.263Z,17.55
2023-04-17T07:16:03.772Z,17.76
2023-04-17T07:18:46.356Z,17.92
2023-04-17T07:21:38.280Z,18.01
2023-04-17T07:24:46.998Z,18.14
2023-04-17T07:27:39.579Z,18.24
2023-04-17T07:30:31.764Z,18.27
2023-04-17T07:33:23.882Z,18.26
2023-04-17T07:36:09.882Z,18.31
2023-04-17T07:39:01.940Z,18.42
2023-04-17T07:41:53.993Z,18.53
2023-04-17T07:44:46.714Z,18.60
2023-04-17T07:47:39.194Z,18.74
2023-04-17T07:50:31.522Z,18.89
2023-04-17T07:53:25.590Z,19.03
2023-04-17T07:56:17.730Z,19.10
2023-04-17T07:59:00.093Z,19.09
2023-04-17T08:01:52.483Z,19.03
2023-04-17T08:04:45.300Z,18.92
2023-04-17T08:07:37.755Z,18.81
2023-04-17T08:10:30.019Z,18.80
2023-04-17T08:13:21.969Z,18.88
2023-04-17T08:16:14.157Z,19.09
2023-04-17T08:19:06.280Z,19.94
2023-04-17T08:21:41.039Z,21.05
2023-04-17T08:24:19.886Z,21.62
2023-04-17T08:27:13.585Z,22.02
2023-04-17T08:30:06.465Z,22.33
2023-04-17T08:32:58.503Z,22.58
2023-04-17T08:35:50.687Z,22.86
2023-04-17T08:38:45.062Z,22.73
2023-04-17T08:41:45.104Z,22.69
2023-04-17T08:44:37.526Z,22.89
2023-04-17T08:47:29.715Z,22.82
2023-04-17T08:50:23.461Z,22.56
2023-04-17T08:53:15.583Z,22.25
2023-04-17T08:55:56.304Z,22.00
2023-04-17T08:58:48.368Z,21.79
2023-04-17T09:01:40.640Z,21.67
2023-04-17T09:04:41.663Z,21.62
2023-04-17T09:07:32.425Z,21.46
2023-04-17T09:10:38.676Z,21.46
2023-04-17T09:13:42.668Z,21.59
2023-04-17T09:16:35.178Z,21.85
2023-04-17T09:19:27.332Z,22.24
2023-04-17T09:22:23.305Z,22.79
2023-04-17T09:25:23.195Z,23.26
2023-04-17T09:28:16.809Z,23.52
2023-04-17T09:31:25.470Z,24.24
2023-04-17T09:34:17.826Z,24.24
2023-04-17T09:37:09.905Z,23.87
2023-04-17T09:40:07.891Z,23.90
2023-04-17T09:43:02.110Z,24.00
2023-04-17T09:45:54.125Z,23.77
2023-04-17T09:48:47.602Z,23.56
2023-04-17T09:51:39.801Z,23.44
2023-04-17T09:54:33.100Z,24.11
2023-04-17T09:57:25.180Z,24.78
2023-04-17T10:00:18.873Z,24.72
2023-04-17T10:03:11.332Z,24.43
2023-04-17T10:05:48.857Z,24.03
2023-04-17T10:08:41.208Z,23.56
2023-04-17T10:11:38.580Z,23.14
2023-04-17T10:14:20.693Z,22.78
2023-04-17T10:17:31.609Z,22.37
2023-04-17T10:20:38.171Z,21.92
2023-04-17T10:23:32.074Z,21.52
2023-04-17T10:26:45.933Z,21.24
2023-04-17T10:29:57.644Z,20.89
2023-04-17T10:33:22.863Z,20.54
2023-04-17T10:36:05.349Z,20.26
2023-04-17T10:39:15.512Z,20.05
2023-04-17T10:42:08.219Z,19.97
2023-04-17T10:45:05.376Z,19.97
2023-04-17T10:47:40.938Z,19.93
2023-04-17T10:50:32.335Z,19.95
2023-04-17T10:53:09.458Z,19.91
2023-04-17T10:56:03.530Z,19.81
2023-04-17T10:59:02.971Z,19.67
2023-04-17T11:02:04.352Z,19.51
2023-04-17T11:05:08.894Z,19.32
2023-04-17T11:08:01.065Z,19.15
2023-04-17T11:10:57.116Z,19.01
2023-04-17T11:13:49.634Z,18.88
2023-04-17T11:16:43.009Z,18.74
2023-04-17T11:19:35.224Z,18.57
2023-04-17T11:22:28.356Z,18.39
2023-04-17T11:25:03.723Z,18.27
2023-04-17T11:27:57.923Z,18.13
2023-04-17T11:30:34.230Z,17.99
2023-04-17T11:33:08.205Z,17.86
2023-04-17T11:36:00.391Z,17.69
2023-04-17T11:38:55.330Z,17.52
2023-04-17T11:41:47.564Z,17.39
2023-04-17T11:44:27.795Z,17.29
2023-04-17T11:47:11.389Z,17.19
2023-04-17T11:50:04.181Z,17.09
2023-04-17T11:52:59.102Z,16.96
2023-04-17T11:55:35.569Z,16.85
2023-04-17T11:58:29.869Z,16.78
2023-04-17T12:01:24.764Z,16.71
2023-04-17T12:04:23.232Z,16.64
2023-04-17T12:07:04.665Z,16.58
2023-04-17T12:09:59.859Z,16.55
2023-04-17T12:12:34.540Z,16.52
2023-04-17T12:15:22.707Z,16.47
2023-04-17T12:18:14.772Z,16.39
2023-04-17T12:21:07.195Z,16.27
2023-04-17T12:23:59.212Z,16.17
2023-04-17T12:26:52.390Z,16.08
2023-04-17T12:32:34.790Z,15.95
2023-04-17T12:35:10.638Z,15.91
2023-04-17T12:37:52.564Z,15.88
2023-04-17T12:40:45.610Z,15.86
2023-04-17T12:43:20.391Z,15.81
2023-04-17T12:46:12.410Z,15.80
2023-04-17T12:48:44.333Z,15.76
2023-04-17T12:51:38.071Z,15.76
2023-04-17T12:54:13.385Z,15.75
2023-04-17T12:56:50.863Z,15.75
2023-04-17T12:59:42.818Z,15.74
2023-04-17T13:02:35.021Z,15.75
2023-04-17T13:05:27.519Z,15.76
2023-04-17T13:08:19.545Z,15.75
2023-04-17T13:10:51.454Z,15.72
2023-04-17T13:13:32.441Z,15.65
2023-04-17T13:16:04.539Z,15.58
2023-04-17T13:18:42.048Z,15.50
2023-04-17T13:21:34.129Z,15.43
2023-04-17T13:24:17.538Z,15.40
2023-04-17T13:27:10.898Z,15.39
2023-04-17T13:30:03.803Z,15.41
2023-04-17T13:32:41.415Z,15.44
2023-04-17T13:35:34.537Z,15.48
2023-04-17T13:38:26.569Z,15.48
2023-04-17T13:41:18.702Z,15.52
2023-04-17T13:44:10.914Z,15.53
2023-04-17T13:47:03.738Z,15.49
2023-04-17T13:49:55.781Z,15.44
2023-04-17T13:52:47.757Z,15.45
2023-04-17T13:55:29.920Z,15.45
2023-04-17T13:58:02.704Z,15.46
2023-04-17T14:00:54.906Z,15.55
2023-04-17T14:03:30.235Z,15.61
2023-04-17T14:06:23.012Z,15.67
2023-04-17T14:08:54.908Z,15.72
2023-04-17T14:11:46.889Z,15.74
2023-04-17T14:14:30.331Z,15.71
2023-04-17T14:17:04.421Z,15.65
2023-04-17T14:19:56.435Z,15.62
2023-04-17T14:22:31.200Z,15.63
2023-04-17T14:25:23.248Z,15.63
2023-04-17T14:28:15.467Z,15.62
2023-04-17T14:30:57.509Z,15.58
2023-04-17T14:33:39.845Z,15.53
2023-04-17T14:36:12.421Z,15.53
2023-04-17T14:39:04.807Z,15.52
2023-04-17T14:41:57.997Z,15.47
2023-04-17T14:44:51.529Z,15.39
2023-04-17T14:47:43.981Z,15.32
2023-04-17T14:50:18.995Z,15.24
2023-04-17T14:53:11.017Z,15.17
2023-04-17T14:55:52.473Z,15.07
2023-04-17T14:58:44.069Z,15.00
2023-04-17T15:01:36.214Z,14.94
2023-04-17T15:04:28.613Z,14.88
2023-04-17T15:07:04.786Z,14.86
2023-04-17T15:09:39.744Z,14.83
2023-04-17T15:12:13.896Z,14.78
2023-04-17T15:14:48.806Z,14.74
2023-04-17T15:17:40.926Z,14.70
2023-04-17T15:20:26.209Z,14.67
2023-04-17T15:23:18.830Z,14.64
2023-04-17T15:26:11.013Z,14.60
2023-04-17T15:28:51.692Z,14.58
2023-04-17T15:31:26.483Z,14.55
2023-04-17T15:34:18.531Z,14.51
2023-04-17T15:36:50.503Z,14.48
2023-04-17T15:39:27.828Z,14.45
2023-04-17T15:42:19.896Z,14.45
2023-04-17T15:44:55.370Z,14.42
2023-04-17T15:47:36.111Z,14.38
2023-04-17T15:50:28.147Z,14.36
2023-04-17T15:53:20.277Z,14.34
2023-04-17T15:56:09.682Z,14.29
2023-04-17T15:59:01.624Z,14.24
2023-04-17T16:01:54.343Z,14.24
2023-04-17T16:04:46.404Z,14.20
2023-04-17T16:07:38.435Z,14.16
2023-04-17T16:10:30.709Z,14.07
2023-04-17T16:13:22.718Z,14.01
2023-04-17T16:15:57.527Z,13.99
2023-04-17T16:18:49.870Z,13.96
2023-04-17T16:21:33.280Z,13.93
2023-04-17T16:24:13.944Z,13.91
2023-04-17T16:26:53.552Z,13.88
2023-04-17T16:29:45.786Z,13.86
2023-04-17T16:32:37.991Z,13.84
2023-04-17T16:35:15.673Z,13.83
2023-04-17T16:38:07.738Z,13.82
2023-04-17T16:41:01.866Z,13.79
2023-04-17T16:43:53.820Z,13.78
2023-04-17T16:47:05.609Z,13.76
2023-04-17T16:49:57.831Z,13.72
2023-04-17T16:52:50.999Z,13.68
2023-04-17T16:55:31.340Z,13.64
2023-04-17T16:58:08.559Z,13.55
2023-04-17T17:00:45.641Z,13.50
2023-04-17T17:03:38.105Z,13.50
2023-04-17T17:06:30.267Z,13.47
2023-04-17T17:09:05.146Z,13.43
2023-04-17T17:11:57.795Z,13.39
2023-04-17T17:14:49.832Z,13.37
2023-04-17T17:17:26.988Z,13.38
2023-04-17T17:20:11.416Z,13.36
2023-04-17T17:23:03.403Z,13.36
2023-04-17T17:25:55.436Z,13.35
2023-04-17T17:28:36.864Z,13.29
2023-04-17T17:31:20.915Z,13.26
2023-04-17T17:37:08.005Z,13.14
2023-04-17T17:39:59.994Z,13.07
2023-04-17T17:42:45.394Z,13.02
2023-04-17T17:45:37.416Z,12.98
2023-04-17T17:48:29.617Z,12.93
2023-04-17T17:51:04.801Z,12.91
2023-04-17T17:53:56.872Z,12.92
2023-04-17T17:56:49.134Z,12.91
2023-04-17T17:59:41.407Z,12.91
2023-04-17T18:02:33.537Z,12.92
2023-04-17T18:05:26.012Z,12.90
2023-04-17T18:08:19.511Z,12.86
2023-04-17T18:10:54.475Z,12.85
2023-04-17T18:13:46.511Z,12.82
2023-04-17T18:16:38.571Z,12.80
2023-04-17T18:19:19.565Z,12.79
2023-04-17T18:22:11.712Z,12.77
2023-04-17T18:24:46.425Z,12.74
2023-04-17T18:27:27.351Z,12.73
2023-04-17T18:30:19.720Z,12.72
2023-04-17T18:33:11.862Z,12.71
2023-04-17T18:35:44.132Z,12.68
2023-04-17T18:38:19.431Z,12.65
2023-04-17T18:41:11.731Z,12.63
2023-04-17T18:44:04.110Z,12.59
2023-04-17T18:46:56.226Z,12.56
2023-04-17T18:49:48.564Z,12.55
2023-04-17T18:52:22.946Z,12.51
2023-04-17T18:55:17.462Z,12.47
2023-04-17T18:58:09.826Z,12.45
2023-04-17T19:01:01.943Z,12.44
2023-04-17T19:03:54.255Z,12.43
2023-04-17T19:06:46.336Z,12.42
2023-04-17T19:09:38.628Z,12.40
2023-04-17T19:12:31.132Z,12.37
2023-04-17T19:15:24.525Z,12.36
2023-04-17T19:18:16.392Z,12.34
2023-04-17T19:21:08.516Z,12.32
2023-04-17T19:24:00.990Z,12.30
2023-04-17T19:26:53.267Z,12.28
2023-04-17T19:29:45.729Z,12.28
2023-04-17T19:32:38.167Z,12.29
2023-04-17T19:35:30.202Z,12.27
2023-04-17T19:38:05.329Z,12.26
2023-04-17T19:40:39.814Z,12.26
2023-04-17T19:43:14.248Z,12.26
2023-04-17T19:46:08.531Z,12.24
2023-04-17T19:49:01.276Z,12.24
2023-04-17T19:51:53.315Z,12.24
2023-04-17T19:54:46.182Z,12.21
2023-04-17T19:57:39.152Z,12.20
2023-04-17T20:00:31.271Z,12.20
2023-04-17T20:03:23.453Z,12.18
2023-04-17T20:06:15.716Z,12.16
2023-04-17T20:09:07.786Z,12.14
2023-04-17T20:11:59.762Z,12.11
2023-04-17T20:14:52.601Z,12.11
2023-04-17T20:17:24.461Z,12.10
2023-04-17T20:19:56.394Z,12.10
2023-04-17T20:22:48.367Z,12.10
2023-04-17T20:25:23.118Z,12.09
2023-04-17T20:28:15.048Z,12.09
2023-04-17T20:30:50.338Z,12.08
2023-04-17T20:33:42.402Z,12.08
2023-04-17T20:36:34.539Z,12.06
2023-04-17T20:39:26.451Z,12.05
2023-04-17T20:42:18.776Z,12.03
2023-04-17T20:45:12.208Z,12.01
2023-04-17T20:48:04.199Z,12.01
2023-04-17T20:50:52.426Z,12.00
2023-04-17T20:53:29.500Z,11.98
2023-04-17T20:56:22.057Z,11.96
2023-04-17T20:59:05.213Z,11.94
2023-04-17T21:01:57.319Z,11.93
2023-04-17T21:04:49.591Z,11.91
2023-04-17T21:07:26.688Z,11.91
2023-04-17T21:10:19.776Z,11.91
2023-04-17T21:13:11.842Z,11.92
2023-04-17T21:16:03.879Z,11.92
2023-04-17T21:18:55.949Z,11.92
2023-04-17T21:21:48.481Z,11.90
2023-04-17T21:24:40.467Z,11.90
2023-04-17T21:27:32.571Z,11.88
2023-04-17T21:30:27.128Z,11.88
2023-04-17T21:33:02.237Z,11.87
2023-04-17T21:35:37.690Z,11.86
2023-04-17T21:38:29.694Z,11.85
2023-04-17T21:41:21.768Z,11.84
2023-04-17T21:44:14.133Z,11.84
2023-04-17T21:47:06.475Z,11.82
2023-04-17T21:49:49.529Z,11.80
2023-04-17T21:52:30.560Z,11.78
2023-04-17T21:55:22.835Z,11.76
2023-04-17T21:58:03.914Z,11.76
2023-04-17T22:00:56.659Z,11.75
2023-04-17T22:03:48.672Z,11.73
2023-04-17T22:06:41.523Z,11.73
2023-04-17T22:09:33.513Z,11.73
2023-04-17T22:12:25.572Z,11.73
2023-04-17T22:15:17.553Z,11.71
2023-04-17T22:17:52.310Z,11.71
2023-04-17T22:20:44.425Z,11.70
2023-04-17T22:23:36.406Z,11.68
2023-04-17T22:26:19.791Z,11.65
2023-04-17T22:29:11.963Z,11.63
2023-04-17T22:31:43.726Z,11.62
2023-04-17T22:34:35.682Z,11.62
2023-04-17T22:37:10.511Z,11.61
2023-04-17T22:40:02.504Z,11.61
2023-04-17T22:42:54.400Z,11.60
2023-04-17T22:45:46.453Z,11.59
2023-04-17T22:48:40.627Z,11.56
2023-04-17T22:51:32.768Z,11.53
2023-04-17T22:54:25.063Z,11.52
2023-04-17T22:57:17.197Z,11.52
2023-04-17T23:00:11.519Z,11.49
2023-04-17T23:02:52.578Z,11.47
2023-04-17T23:05:59.785Z,11.46
2023-04-17T23:08:51.881Z,11.45
2023-04-17T23:11:43.960Z,11.45
2023-04-17T23:14:36.096Z,11.44
2023-04-17T23:17:28.201Z,11.47
2023-04-17T23:20:20.468Z,11.45
2023-04-17T23:23:12.569Z,11.43
2023-04-17T23:26:04.654Z,11.45
2023-04-17T23:28:56.763Z,11.46
2023-04-17T23:31:49.058Z,11.45
2023-04-17T23:34:23.812Z,11.44
2023-04-17T23:37:16.031Z,11.44
2023-04-17T23:39:57.815Z,11.44
2023-04-17T23:42:49.855Z,11.44
2023-04-17T23:45:32.988Z,11.44
2023-04-17T23:48:25.123Z,11.44
2023-04-17T23:51:17.342Z,11.44
2023-04-17T23:54:09.449Z,11.43
2023-04-17T23:57:02.191Z,11.41
2023-04-17T23:59:54.195Z,11.38
